Elkedra Airport


Codes: YELK/EKD
Name: Elkedra Airport
City:
Country: Australia
Elevation: 0 ft.

Photos at Elkedra Airport


   Photos courtesy of SpottingLog. You can add your own sightings and photos by signing up for a free trial today.



No photos found.

Weather at Elkedra Airport


Time (UTC)DescriptionTempratureWindCloud coverageVisibilityPressureHumidity
19-Apr-2024 06:00Broken Clouds27°C20 mph, SE52%10000m1016hPa20%
19-Apr-2024 09:00Scattered Clouds25°C18 mph, SE50%10000m1016hPa21%
19-Apr-2024 12:00Few Clouds21°C20 mph, SE24%10000m1019hPa22%
19-Apr-2024 15:00Few Clouds19°C20 mph, SE12%10000m1019hPa27%
19-Apr-2024 18:00Scattered Clouds17°C18 mph, SE28%10000m1019hPa31%
19-Apr-2024 21:00Broken Clouds16°C18 mph, SE63%10000m1020hPa39%
20-Apr-2024 00:00Scattered Clouds20°C25 mph, SE34%10000m1020hPa33%
20-Apr-2024 03:00Clear Sky25°C25 mph, SE7%10000m1018hPa25%
20-Apr-2024 06:00Clear Sky26°C22 mph, SE7%10000m1015hPa25%
20-Apr-2024 09:00Broken Clouds23°C20 mph, SE83%10000m1017hPa27%
20-Apr-2024 12:00Broken Clouds20°C20 mph, SE81%10000m1019hPa34%
20-Apr-2024 15:00Overcast Clouds18°C18 mph, SE87%10000m1019hPa32%
20-Apr-2024 18:00Scattered Clouds16°C18 mph, SE43%10000m1019hPa37%
20-Apr-2024 21:00Clear Sky15°C18 mph, SE0%10000m1020hPa42%
21-Apr-2024 00:00Clear Sky20°C27 mph, SE0%10000m1020hPa36%
21-Apr-2024 03:00Clear Sky25°C25 mph, SE1%10000m1017hPa24%
21-Apr-2024 06:00Few Clouds26°C22 mph, SE16%10000m1015hPa22%
21-Apr-2024 09:00Broken Clouds23°C20 mph, SE69%10000m1016hPa26%
21-Apr-2024 12:00Overcast Clouds21°C18 mph, SE85%10000m1018hPa32%
21-Apr-2024 15:00Broken Clouds19°C18 mph, SE54%10000m1017hPa33%
21-Apr-2024 18:00Scattered Clouds18°C16 mph, SE50%10000m1016hPa38%
21-Apr-2024 21:00Scattered Clouds17°C16 mph, SE39%10000m1017hPa46%
22-Apr-2024 00:00Scattered Clouds21°C25 mph, SE48%10000m1018hPa44%
22-Apr-2024 03:00Broken Clouds26°C22 mph, SE67%10000m1015hPa33%
22-Apr-2024 06:00Broken Clouds27°C20 mph, SE79%10000m1012hPa28%
22-Apr-2024 09:00Broken Clouds24°C11 mph, SE68%10000m1013hPa32%
22-Apr-2024 12:00Broken Clouds24°C13 mph, SE84%10000m1015hPa38%
22-Apr-2024 15:00Overcast Clouds23°C16 mph, SE100%10000m1014hPa41%
22-Apr-2024 18:00Overcast Clouds21°C16 mph, SE100%10000m1013hPa48%
22-Apr-2024 21:00Overcast Clouds20°C11 mph, SE85%10000m1015hPa52%
23-Apr-2024 00:00Overcast Clouds24°C16 mph, SE92%10000m1016hPa37%
23-Apr-2024 03:00Clear Sky28°C16 mph, SE6%10000m1013hPa30%
23-Apr-2024 06:00Clear Sky30°C16 mph, SE4%10000m1011hPa26%
23-Apr-2024 09:00Clear Sky26°C11 mph, SE1%10000m1012hPa31%
23-Apr-2024 12:00Clear Sky24°C13 mph, SE0%10000m1015hPa38%
23-Apr-2024 15:00Clear Sky23°C13 mph, SE0%10000m1014hPa43%
23-Apr-2024 18:00Clear Sky21°C16 mph, SE1%10000m1014hPa44%
23-Apr-2024 21:00Clear Sky20°C16 mph, SE1%10000m1016hPa43%
24-Apr-2024 00:00Few Clouds25°C22 mph, SE12%10000m1017hPa32%
24-Apr-2024 03:00Clear Sky28°C22 mph, SE4%10000m1016hPa27%